createdAt,value
2018-10-09T16:51:36.503Z,20.93
2018-10-09T16:54:05.681Z,21.20
2018-10-09T16:56:34.474Z,21.60
2018-10-09T16:59:03.120Z,22.62
2018-10-09T17:01:32.212Z,23.50
2018-10-09T17:04:01.467Z,20.93
2018-10-09T17:06:30.115Z,23.47
2018-10-09T17:08:59.243Z,22.42
2018-10-09T17:11:27.965Z,22.10
2018-10-09T17:13:56.169Z,23.35
2018-10-09T17:16:24.834Z,24.55
2018-10-09T17:18:53.301Z,25.60
2018-10-09T17:21:21.674Z,25.57
2018-10-09T17:23:50.269Z,20.80
2018-10-09T17:26:19.503Z,25.30
2018-10-09T17:28:48.211Z,23.80
2018-10-09T17:31:16.702Z,25.77
2018-10-09T17:33:45.286Z,38.73
2018-10-09T17:36:13.842Z,29.50
2018-10-09T17:38:42.383Z,25.67
2018-10-09T17:41:11.130Z,29.67
2018-10-09T17:43:39.690Z,27.97
2018-10-09T17:46:08.350Z,26.90
2018-10-09T17:48:36.841Z,25.40
2018-10-09T17:51:05.370Z,29.00
2018-10-09T17:53:35.133Z,25.43
2018-10-09T17:56:03.681Z,26.60
2018-10-09T17:58:33.886Z,27.37
2018-10-09T18:01:02.636Z,27.43
2018-10-09T18:03:30.920Z,26.57
2018-10-09T18:05:59.149Z,28.40
2018-10-09T18:08:27.347Z,27.63
2018-10-09T18:10:55.725Z,28.80
2018-10-09T18:13:24.397Z,27.97
2018-10-09T18:15:53.891Z,27.00
2018-10-09T18:18:22.390Z,25.87
2018-10-09T18:20:52.595Z,28.30
2018-10-09T18:23:21.121Z,29.23
2018-10-09T18:25:49.866Z,30.73
2018-10-09T18:28:19.014Z,29.30
2018-10-09T18:30:47.554Z,28.47
2018-10-09T18:33:15.767Z,30.73
2018-10-09T18:35:43.970Z,29.27
2018-10-09T18:38:12.128Z,32.63
2018-10-09T18:40:40.399Z,28.10
2018-10-09T18:43:08.484Z,31.00
2018-10-09T18:45:36.657Z,33.43
2018-10-09T18:48:04.831Z,30.57
2018-10-09T18:50:32.996Z,44.87
2018-10-09T18:53:01.180Z,37.73
2018-10-09T18:55:29.355Z,39.93
2018-10-09T18:57:57.504Z,38.47
2018-10-09T19:00:25.652Z,39.23
2018-10-09T19:02:53.811Z,36.97
2018-10-09T19:05:21.984Z,36.07
2018-10-09T19:07:50.159Z,41.00
2018-10-09T19:10:18.316Z,50.03
2018-10-09T19:12:46.506Z,39.90
2018-10-09T19:15:14.667Z,41.37
2018-10-09T19:17:42.891Z,35.17
2018-10-09T19:20:11.064Z,35.20
2018-10-09T19:22:39.240Z,38.03
2018-10-09T19:25:07.622Z,39.83
2018-10-09T19:27:35.793Z,40.10
2018-10-09T19:30:03.993Z,37.47
2018-10-09T19:32:32.237Z,38.90
2018-10-09T19:35:00.345Z,40.10
2018-10-09T19:37:28.538Z,43.13
2018-10-09T19:39:56.735Z,39.27
2018-10-09T19:42:24.909Z,41.23
2018-10-09T19:44:53.068Z,40.30
2018-10-09T19:47:21.263Z,44.27
2018-10-09T19:49:49.537Z,46.60
2018-10-09T19:52:17.707Z,44.70
2018-10-09T19:54:45.888Z,46.23
2018-10-09T19:57:14.059Z,50.27
2018-10-09T19:59:42.209Z,46.27
2018-10-09T20:02:10.423Z,49.50
2018-10-09T20:04:38.824Z,45.77
2018-10-09T20:07:06.980Z,45.47
2018-10-09T20:09:35.142Z,47.27
2018-10-09T20:12:03.313Z,42.47
2018-10-09T20:14:31.508Z,48.87
2018-10-09T20:16:59.704Z,48.37
2018-10-09T20:19:27.885Z,46.93
2018-10-09T20:21:56.073Z,49.53
2018-10-09T20:24:24.258Z,42.77
2018-10-09T20:26:52.440Z,46.40
2018-10-09T20:29:20.605Z,43.60
2018-10-09T20:31:48.776Z,43.30
2018-10-09T20:34:17.090Z,40.23
2018-10-09T20:36:45.286Z,41.87
2018-10-09T20:39:13.497Z,42.30
2018-10-09T20:41:41.753Z,41.37
2018-10-09T20:44:09.934Z,41.33
2018-10-09T20:46:38.081Z,41.10
2018-10-09T20:49:06.626Z,40.27
2018-10-09T20:51:34.806Z,43.37
2018-10-09T20:54:02.972Z,41.07
2018-10-09T20:56:31.146Z,40.97
2018-10-09T20:58:59.458Z,43.73
